Time;durP1;ratioP1;P1;durP2;ratioP2;P2;SDS_P1;SDS_P2;PMS_P1;PMS_P2;Temp;Humidity;BMP_temperature;BMP_pressure;BME280_temperature;BME280_humidity;BME280_pressure;Samples;Min_cycle;Max_cycle;Signal;HPM_P1;HPM_P2
2021/08/12 00:00:22;;;;;;;10.00;6.10;;;;;;;20.90;54.33;93286.34;2071336;69;20189;-73
2021/08/12 00:02:48;;;;;;;8.90;5.72;;;;;;;20.96;54.36;93283.66;2071313;69;20137;-72
2021/08/12 00:05:14;;;;;;;9.88;5.78;;;;;;;20.76;54.38;93283.03;2070822;69;20308;-72
2021/08/12 00:07:39;;;;;;;10.65;6.30;;;;;;;20.84;54.84;93285.41;2071720;69;20144;-72
2021/08/12 00:10:05;;;;;;;15.18;6.75;;;;;;;20.78;55.98;93295.25;2071592;69;20146;-71
2021/08/12 00:12:31;;;;;;;11.13;5.80;;;;;;;20.74;57.41;93295.13;2071623;69;20144;-72
2021/08/12 00:14:56;;;;;;;18.25;5.75;;;;;;;20.72;55.57;93295.06;2071650;69;20291;-72
2021/08/12 00:17:22;;;;;;;14.57;5.97;;;;;;;20.69;57.15;93290.66;2071864;69;20265;-72
2021/08/12 00:19:48;;;;;;;9.10;5.82;;;;;;;20.49;57.09;93290.75;2071375;69;20144;-72
2021/08/12 00:22:13;;;;;;;9.98;6.20;;;;;;;20.60;56.53;93299.66;2071460;69;20166;-73
2021/08/12 00:24:39;;;;;;;9.85;5.50;;;;;;;20.54;56.59;93291.59;2071355;69;20580;-72
2021/08/12 00:27:04;;;;;;;9.05;5.95;;;;;;;20.48;57.26;93291.38;2071591;69;20163;-73
2021/08/12 00:29:31;;;;;;;8.07;5.78;;;;;;;20.55;56.13;93293.78;2068087;69;20510;-73
2021/08/12 00:31:57;;;;;;;8.90;5.90;;;;;;;20.65;55.50;93293.41;2071557;69;20176;-72
2021/08/12 00:34:23;;;;;;;10.80;5.55;;;;;;;20.75;56.09;93290.13;2067811;69;20209;-72
2021/08/12 00:36:49;;;;;;;9.80;6.18;;;;;;;20.35;56.10;93298.09;2068301;69;20201;-73
2021/08/12 00:39:17;;;;;;;7.63;5.68;;;;;;;20.43;56.08;93290.50;2071373;69;20629;-70
2021/08/12 00:41:43;;;;;;;9.63;5.93;;;;;;;20.75;54.22;93293.00;2071397;69;20154;-71
2021/08/12 00:44:11;;;;;;;11.85;6.07;;;;;;;20.70;53.34;93299.97;2068072;69;20251;-72
2021/08/12 00:46:37;;;;;;;9.88;6.00;;;;;;;20.55;54.35;93299.50;2067740;69;20282;-71
2021/08/12 00:49:03;;;;;;;11.75;5.93;;;;;;;20.53;55.47;93302.31;2067949;69;20156;-71
2021/08/12 00:51:30;;;;;;;10.52;5.60;;;;;;;20.44;56.31;93297.69;2067921;69;20160;-72
2021/08/12 00:53:57;;;;;;;13.82;6.20;;;;;;;20.42;56.82;93302.59;2071327;69;20333;-73
2021/08/12 00:56:25;;;;;;;10.40;5.82;;;;;;;20.57;56.13;93301.72;2071466;69;20152;-74
2021/08/12 00:58:52;;;;;;;9.52;5.97;;;;;;;20.41;55.04;93301.88;2071460;69;20236;-72
2021/08/12 01:01:19;;;;;;;9.32;5.82;;;;;;;20.45;56.29;93304.16;2067618;69;20210;-72
2021/08/12 01:03:45;;;;;;;7.05;5.60;;;;;;;20.46;56.23;93300.63;2071188;69;20160;-71
2021/08/12 01:06:13;;;;;;;11.02;6.13;;;;;;;20.34;55.25;93303.06;2067784;69;20255;-72
2021/08/12 01:08:58;;;;;;;10.85;5.78;;;;;;;20.25;57.30;93307.78;2067870;69;20150;-73
2021/08/12 01:11:27;;;;;;;9.27;6.13;;;;;;;20.28;55.35;93300.72;2068038;69;20140;-73
2021/08/12 01:14:15;;;;;;;8.25;5.38;;;;;;;20.31;56.25;93305.13;2068022;69;21021;-73
2021/08/12 01:16:49;;;;;;;9.32;5.95;;;;;;;20.72;53.90;93300.06;2071737;69;20199;-73
2021/08/12 01:19:37;;;;;;;8.43;5.80;;;;;;;20.55;54.50;93302.38;2067938;69;20239;-73
2021/08/12 01:22:05;;;;;;;8.00;5.93;;;;;;;19.74;56.64;93310.94;2067885;69;20231;-72
2021/08/12 01:24:37;;;;;;;8.43;5.80;;;;;;;19.92;56.79;93311.59;2067802;69;20144;-73
2021/08/12 01:27:08;;;;;;;11.25;5.70;;;;;;;20.12;56.75;93310.88;2068015;69;20172;-74
2021/08/12 01:30:10;;;;;;;9.43;6.18;;;;;;;20.09;56.64;93301.50;2068211;69;20168;-73
2021/08/12 01:32:46;;;;;;;7.75;5.50;;;;;;;20.03;55.71;93302.03;2065871;69;20175;-73
2021/08/12 01:35:17;;;;;;;7.63;5.57;;;;;;;20.12;54.75;93303.03;2067839;69;20240;-72
2021/08/12 01:37:57;;;;;;;8.30;5.85;;;;;;;20.28;54.55;93300.72;2071419;69;20153;-74
2021/08/12 01:40:25;;;;;;;9.30;6.00;;;;;;;20.12;56.00;93305.91;2068210;69;20144;-75
2021/08/12 01:42:52;;;;;;;10.80;6.22;;;;;;;19.84;57.72;93302.00;2068099;69;20162;-74
2021/08/12 01:45:19;;;;;;;11.55;6.00;;;;;;;19.63;58.50;93309.84;2064773;69;20214;-72
2021/08/12 01:47:48;;;;;;;10.95;5.95;;;;;;;19.54;58.84;93305.22;2064737;69;20148;-72
2021/08/12 01:50:16;;;;;;;10.23;6.00;;;;;;;19.47;58.33;93307.13;2067896;69;20144;-73
2021/08/12 01:52:46;;;;;;;9.82;6.13;;;;;;;19.86;57.15;93305.69;2071335;69;20708;-72
2021/08/12 01:55:15;;;;;;;10.52;6.30;;;;;;;19.76;57.58;93294.63;2067947;69;20591;-73
2021/08/12 01:57:44;;;;;;;12.45;6.75;;;;;;;19.67;57.92;93300.72;2068006;69;20228;-72
2021/08/12 02:00:13;;;;;;;7.90;6.28;;;;;;;19.73;57.38;93303.78;2067835;69;20219;-73
2021/08/12 02:02:46;;;;;;;10.52;5.90;;;;;;;19.86;56.14;93296.38;2070808;69;20202;-72
2021/08/12 02:05:14;;;;;;;10.30;6.63;;;;;;;19.22;59.98;93294.03;2064967;69;20195;-72
2021/08/12 02:07:46;;;;;;;9.73;6.30;;;;;;;19.40;58.55;93298.97;2068054;69;20209;-73
2021/08/12 02:10:16;;;;;;;7.13;5.63;;;;;;;19.51;58.18;93284.41;2068317;69;20222;-72
2021/08/12 02:12:42;;;;;;;8.88;6.10;;;;;;;19.64;56.65;93290.59;2068245;69;20164;-74
2021/08/12 02:15:10;;;;;;;12.45;5.97;;;;;;;19.47;57.86;93286.38;2068445;69;20156;-73
2021/08/12 02:17:37;;;;;;;11.15;6.32;;;;;;;19.45;58.09;93292.75;2068578;69;20174;-73
2021/08/12 02:20:06;;;;;;;9.13;5.90;;;;;;;19.37;58.23;93295.28;2068549;69;20221;-73
2021/08/12 02:23:05;;;;;;;9.70;5.97;;;;;;;19.43;58.63;93289.81;2071936;69;20154;-73
2021/08/12 02:25:38;;;;;;;8.60;6.00;;;;;;;19.19;60.37;93295.34;2062907;69;20137;-72
2021/08/12 02:28:07;;;;;;;11.30;7.07;;;;;;;18.89;60.15;93294.16;2065401;69;20141;-73
2021/08/12 02:30:39;;;;;;;11.50;6.45;;;;;;;18.99;60.86;93295.28;2065818;69;20708;-74
2021/08/12 02:33:08;;;;;;;8.80;5.82;;;;;;;19.12;59.61;93295.78;2068483;69;20132;-73
2021/08/12 02:35:37;;;;;;;11.43;6.53;;;;;;;19.20;59.11;93293.97;2068361;69;20151;-73
2021/08/12 02:38:06;;;;;;;11.02;6.40;;;;;;;19.05;59.73;93294.78;2068647;69;20148;-73
2021/08/12 02:40:33;;;;;;;9.88;6.05;;;;;;;19.11;59.60;93295.03;2068598;69;20148;-73
2021/08/12 02:43:00;;;;;;;8.30;5.95;;;;;;;19.19;58.63;93297.44;2071695;69;20227;-74
2021/08/12 02:45:27;;;;;;;10.75;6.18;;;;;;;18.99;60.78;93295.28;2068675;69;20210;-73
2021/08/12 02:47:55;;;;;;;8.93;6.18;;;;;;;18.68;60.83;93289.72;2068377;69;20147;-74
2021/08/12 02:50:21;;;;;;;12.48;6.43;;;;;;;18.90;60.39;93287.06;2068543;69;20889;-74
2021/08/12 02:52:49;;;;;;;9.48;6.20;;;;;;;18.95;59.67;93283.00;2068377;69;20221;-73
2021/08/12 02:55:16;;;;;;;11.23;6.88;;;;;;;18.90;60.64;93284.22;2065871;69;20129;-73
2021/08/12 02:57:41;;;;;;;10.05;6.30;;;;;;;19.05;59.39;93284.09;2068550;69;20353;-73
2021/08/12 03:00:08;;;;;;;13.43;6.47;;;;;;;18.93;59.02;93283.66;2071918;69;20675;-73
2021/08/12 03:02:44;;;;;;;11.00;6.90;;;;;;;18.84;59.51;93287.56;2069906;69;20242;-74
2021/08/12 03:05:13;;;;;;;11.55;6.88;;;;;;;18.70;60.14;93284.16;2068494;69;20167;-73
2021/08/12 03:07:42;;;;;;;10.15;6.65;;;;;;;18.67;60.85;93291.13;2068624;69;20252;-73
2021/08/12 03:10:11;;;;;;;9.93;6.35;;;;;;;18.54;60.48;93287.78;2071883;69;20605;-73
2021/08/12 03:12:37;;;;;;;9.68;6.75;;;;;;;18.68;59.47;93296.16;2071886;69;20160;-72
2021/08/12 03:15:04;;;;;;;10.30;6.85;;;;;;;18.67;60.77;93291.84;2068331;69;20694;-72
2021/08/12 03:17:29;;;;;;;11.00;6.25;;;;;;;18.59;61.44;93293.66;2068366;69;20147;-72
2021/08/12 03:19:56;;;;;;;11.80;6.55;;;;;;;18.54;61.54;93287.78;2071751;69;20148;-73
2021/08/12 03:22:24;;;;;;;9.57;6.30;;;;;;;18.60;61.21;93295.09;2071781;69;20633;-73
2021/08/12 03:24:52;;;;;;;10.30;6.50;;;;;;;18.63;61.06;93293.81;2068457;69;20140;-72
2021/08/12 03:27:18;;;;;;;13.15;7.10;;;;;;;18.43;61.94;93305.88;2068478;69;20156;-73
2021/08/12 03:29:45;;;;;;;14.00;6.55;;;;;;;18.37;61.48;93299.16;2068390;69;20133;-73
2021/08/12 03:32:11;;;;;;;8.85;6.38;;;;;;;18.61;60.53;93299.44;2068375;69;20144;-73
2021/08/12 03:34:38;;;;;;;14.25;6.32;;;;;;;18.40;61.99;93295.75;2068336;69;20276;-73
2021/08/12 03:37:05;;;;;;;8.93;6.70;;;;;;;18.50;61.28;93298.28;2068462;69;20159;-73
2021/08/12 03:39:34;;;;;;;15.85;7.15;;;;;;;18.38;62.29;93300.66;2068713;69;20148;-72
2021/08/12 03:42:00;;;;;;;9.95;6.88;;;;;;;18.27;62.46;93303.06;2068542;69;20140;-73
2021/08/12 03:44:27;;;;;;;12.10;7.32;;;;;;;18.31;62.08;93305.34;2071810;69;20534;-73
2021/08/12 03:46:53;;;;;;;11.93;6.80;;;;;;;18.34;61.69;93286.97;2071817;69;20156;-73
2021/08/12 03:49:19;;;;;;;13.38;6.65;;;;;;;18.35;61.28;93290.53;2068028;69;20160;-73
2021/08/12 03:51:45;;;;;;;9.70;6.18;;;;;;;18.31;62.16;93296.06;2068356;69;20171;-75
2021/08/12 03:54:11;;;;;;;11.07;6.85;;;;;;;18.33;62.10;93291.19;2071798;69;20567;-75
2021/08/12 03:56:37;;;;;;;10.45;6.78;;;;;;;18.16;63.03;93292.63;2068269;69;20156;-74
2021/08/12 03:59:04;;;;;;;11.05;7.30;;;;;;;18.02;63.95;93295.59;2071546;69;20203;-74
2021/08/12 04:01:30;;;;;;;14.60;7.10;;;;;;;18.12;63.38;93295.31;2071768;69;20151;-74
2021/08/12 04:04:00;;;;;;;10.18;6.70;;;;;;;18.13;62.58;93305.31;2068018;69;20168;-73
2021/08/12 04:06:26;;;;;;;12.57;7.95;;;;;;;18.06;63.55;93306.44;2068341;69;20155;-75
2021/08/12 04:08:52;;;;;;;12.13;7.15;;;;;;;18.04;63.60;93301.38;2068506;69;20168;-74
2021/08/12 04:11:19;;;;;;;9.85;6.72;;;;;;;18.20;62.79;93309.91;2068534;69;20136;-74
2021/08/12 04:13:45;;;;;;;11.55;7.13;;;;;;;18.00;63.63;93301.22;2068355;69;20203;-75
2021/08/12 04:16:11;;;;;;;10.45;6.90;;;;;;;18.11;63.34;93307.34;2068481;69;20535;-74
2021/08/12 04:18:37;;;;;;;10.73;7.03;;;;;;;18.09;62.57;93304.41;2065362;69;20204;-74
2021/08/12 04:21:05;;;;;;;8.95;6.80;;;;;;;18.01;63.98;93302.69;2071457;69;20187;-74
2021/08/12 04:23:31;;;;;;;11.38;6.68;;;;;;;18.05;63.74;93296.41;2068276;69;20551;-73
2021/08/12 04:25:57;;;;;;;10.88;6.95;;;;;;;17.64;65.38;93303.19;2068130;69;20295;-74
2021/08/12 04:28:23;;;;;;;10.38;6.78;;;;;;;17.78;64.50;93303.13;2071640;69;20175;-74
2021/08/12 04:30:49;;;;;;;10.52;6.80;;;;;;;17.85;63.54;93304.84;2068029;69;20144;-75
2021/08/12 04:33:17;;;;;;;10.95;6.80;;;;;;;17.91;63.25;93296.53;2067681;69;20140;-74
2021/08/12 04:35:43;;;;;;;11.55;6.70;;;;;;;18.03;62.74;93296.34;2067913;69;20148;-74
2021/08/12 04:38:09;;;;;;;12.75;7.55;;;;;;;17.60;64.46;93297.31;2069785;69;20616;-73
2021/08/12 04:40:35;;;;;;;12.23;7.10;;;;;;;17.82;64.05;93305.38;2067880;69;20152;-74
2021/08/12 04:43:01;;;;;;;11.77;6.82;;;;;;;17.68;64.79;93306.19;2068337;69;20602;-74
2021/08/12 04:45:27;;;;;;;12.57;7.07;;;;;;;17.81;63.79;93296.09;2071810;69;20233;-73
2021/08/12 04:48:01;;;;;;;10.43;6.43;;;;;;;17.90;64.34;93302.88;2065554;69;20617;-73
2021/08/12 04:50:29;;;;;;;9.95;6.38;;;;;;;17.88;64.03;93299.97;2068120;69;20140;-72
2021/08/12 04:52:56;;;;;;;12.48;6.80;;;;;;;17.84;63.70;93311.91;2071308;69;20151;-73
2021/08/12 04:55:23;;;;;;;11.57;6.45;;;;;;;17.84;64.42;93308.34;2068346;69;20159;-74
2021/08/12 04:57:48;;;;;;;11.80;6.88;;;;;;;17.77;64.51;93310.91;2071716;69;20140;-74
2021/08/12 05:00:15;;;;;;;12.32;6.85;;;;;;;17.93;62.72;93307.31;2068125;69;20152;-74
2021/08/12 05:02:41;;;;;;;12.50;7.18;;;;;;;17.87;63.75;93313.47;2068054;69;20510;-74
2021/08/12 05:05:07;;;;;;;11.20;7.65;;;;;;;17.88;64.20;93314.22;2068100;69;20160;-72
2021/08/12 05:07:33;;;;;;;11.68;6.88;;;;;;;17.92;64.58;93322.94;2068081;69;20236;-72
2021/08/12 05:09:59;;;;;;;11.98;7.10;;;;;;;17.91;64.59;93324.28;2068186;69;20142;-72
2021/08/12 05:12:25;;;;;;;10.95;6.95;;;;;;;17.63;65.19;93315.22;2068207;69;20609;-73
2021/08/12 05:14:51;;;;;;;12.50;7.00;;;;;;;17.96;63.00;93315.28;2068202;69;20152;-73
2021/08/12 05:17:19;;;;;;;12.98;7.13;;;;;;;17.90;65.20;93325.69;2067885;69;20693;-72
2021/08/12 05:19:44;;;;;;;13.68;7.20;;;;;;;17.88;65.15;93325.59;2071549;69;20144;-73
2021/08/12 05:22:11;;;;;;;12.15;7.20;;;;;;;17.90;63.17;93317.88;2066995;69;20156;-73
2021/08/12 05:24:38;;;;;;;19.52;7.50;;;;;;;18.05;63.04;93324.91;2067983;69;20208;-73
2021/08/12 05:27:04;;;;;;;14.70;7.55;;;;;;;17.23;67.76;93323.41;2068106;69;20202;-73
2021/08/12 05:29:30;;;;;;;11.82;7.85;;;;;;;17.64;65.66;93328.06;2067919;69;20148;-73
2021/08/12 05:31:55;;;;;;;10.57;7.40;;;;;;;17.78;65.28;93328.75;2067806;69;20152;-74
2021/08/12 05:34:21;;;;;;;15.48;7.07;;;;;;;17.77;65.93;93330.09;2067977;69;20148;-74
2021/08/12 05:36:47;;;;;;;10.90;6.95;;;;;;;17.86;64.10;93334.03;2068099;69;20176;-74
2021/08/12 05:39:12;;;;;;;10.07;6.97;;;;;;;17.89;65.24;93338.47;2068114;69;20572;-74
2021/08/12 05:41:38;;;;;;;12.05;6.95;;;;;;;18.05;64.14;93336.28;2068099;69;20148;-74
2021/08/12 05:44:04;;;;;;;13.68;7.20;;;;;;;17.91;64.14;93330.00;2071422;69;20628;-75
2021/08/12 05:46:30;;;;;;;11.98;7.07;;;;;;;17.97;64.47;93330.28;2067770;69;20156;-75
2021/08/12 05:48:56;;;;;;;18.35;7.72;;;;;;;18.09;64.22;93330.03;2071253;69;20176;-74
2021/08/12 05:51:21;;;;;;;16.42;7.93;;;;;;;18.14;64.18;93337.38;2068156;69;20136;-74
2021/08/12 05:53:47;;;;;;;10.80;7.70;;;;;;;17.66;65.70;93331.00;2068142;69;20176;-74
2021/08/12 05:56:13;;;;;;;15.50;9.07;;;;;;;17.78;65.05;93335.16;2067893;69;20141;-73
2021/08/12 05:58:39;;;;;;;16.60;7.78;;;;;;;18.09;63.46;93341.44;2067492;69;20521;-73
2021/08/12 06:01:08;;;;;;;13.32;8.23;;;;;;;18.17;62.52;93344.66;2071248;69;20148;-74
2021/08/12 06:03:34;;;;;;;11.98;7.50;;;;;;;18.04;65.43;93344.13;2067847;69;20145;-73
2021/08/12 06:06:01;;;;;;;15.57;8.02;;;;;;;17.99;64.63;93333.19;2068098;69;20144;-73
2021/08/12 06:08:27;;;;;;;16.67;7.80;;;;;;;18.13;64.08;93342.34;2068208;69;20222;-73
2021/08/12 06:10:53;;;;;;;15.77;7.82;;;;;;;18.11;61.75;93338.69;2067770;69;20182;-74
2021/08/12 06:13:19;;;;;;;15.00;7.40;;;;;;;18.18;62.31;93335.44;2067879;69;20220;-73
2021/08/12 06:15:46;;;;;;;14.90;7.90;;;;;;;18.25;63.85;93340.03;2068004;69;20148;-74
2021/08/12 06:18:13;;;;;;;12.85;7.78;;;;;;;17.66;66.16;93348.09;2067945;69;20498;-74
2021/08/12 06:20:40;;;;;;;17.02;8.15;;;;;;;17.79;65.64;93353.00;2067813;69;20175;-73
2021/08/12 06:23:07;;;;;;;14.18;7.32;;;;;;;18.16;63.41;93343.91;2068100;69;20148;-74
2021/08/12 06:25:38;;;;;;;9.45;6.85;;;;;;;18.33;61.66;93339.66;2068061;69;20614;-74
2021/08/12 06:28:05;;;;;;;12.13;6.57;;;;;;;18.16;62.80;93337.50;2067731;69;20151;-74
2021/08/12 06:30:32;;;;;;;10.98;6.43;;;;;;;18.17;63.95;93328.28;2067877;69;20213;-73
2021/08/12 06:32:59;;;;;;;11.95;6.60;;;;;;;18.36;61.69;93338.34;2067704;69;20610;-74
2021/08/12 06:35:26;;;;;;;14.23;7.70;;;;;;;18.22;63.23;93340.59;2067972;69;20225;-73
2021/08/12 06:37:55;;;;;;;11.82;7.40;;;;;;;18.31;63.80;93333.84;2067770;69;20148;-73
2021/08/12 06:40:22;;;;;;;13.10;6.80;;;;;;;18.49;63.33;93340.31;2067739;69;20236;-73
2021/08/12 06:42:49;;;;;;;13.15;6.30;;;;;;;18.76;61.22;93332.88;2067609;69;20172;-73
2021/08/12 06:45:19;;;;;;;9.75;6.00;;;;;;;18.84;62.23;93321.06;2067979;69;20151;-73
2021/08/12 06:47:45;;;;;;;10.35;6.35;;;;;;;19.02;62.04;93328.22;2067589;69;20136;-74
2021/08/12 06:50:17;;;;;;;7.82;5.93;;;;;;;19.14;60.57;93336.53;2067665;69;20140;-74
2021/08/12 06:52:43;;;;;;;7.20;5.68;;;;;;;19.21;61.11;93323.97;2067807;69;20179;-74
2021/08/12 06:55:10;;;;;;;8.07;6.07;;;;;;;19.28;60.36;93331.34;2067783;69;20144;-72
2021/08/12 06:57:36;;;;;;;7.25;5.78;;;;;;;19.43;61.84;93337.63;2068463;69;20152;-75
2021/08/12 07:00:04;;;;;;;8.82;5.93;;;;;;;19.58;59.26;93336.03;2068539;69;20147;-73
2021/08/12 07:02:31;;;;;;;7.38;6.03;;;;;;;19.69;61.18;93335.03;2068169;69;20610;-73
2021/08/12 07:04:57;;;;;;;9.02;6.60;;;;;;;19.65;60.59;93332.03;2068433;69;20140;-73
2021/08/12 07:07:22;;;;;;;8.98;6.25;;;;;;;19.62;61.31;93341.94;2068744;69;20272;-73
2021/08/12 07:09:51;;;;;;;13.98;6.43;;;;;;;20.00;60.81;93345.47;2068515;69;20159;-73
2021/08/12 07:12:17;;;;;;;9.18;6.07;;;;;;;19.88;60.18;93342.88;2068534;69;20140;-74
2021/08/12 07:14:42;;;;;;;8.43;6.32;;;;;;;20.33;59.66;93340.91;2068543;69;20151;-73
2021/08/12 07:17:08;;;;;;;10.38;5.90;;;;;;;20.62;61.87;93329.06;2068462;69;20133;-73
2021/08/12 07:19:34;;;;;;;8.73;5.65;;;;;;;20.98;61.20;93331.63;2071828;69;20144;-73
2021/08/12 07:22:00;;;;;;;10.05;6.28;;;;;;;21.26;61.63;93335.41;2068517;69;20140;-73
2021/08/12 07:24:27;;;;;;;9.23;6.15;;;;;;;21.51;61.81;93333.31;2065749;69;20607;-73
2021/08/12 07:26:52;;;;;;;10.27;6.40;;;;;;;21.85;60.04;93327.88;2068546;69;20136;-73
2021/08/12 07:29:19;;;;;;;8.65;5.50;;;;;;;22.02;60.20;93329.78;2068527;69;20247;-73
2021/08/12 07:31:45;;;;;;;8.65;5.93;;;;;;;22.35;58.79;93327.84;2068596;69;20209;-73
2021/08/12 07:34:12;;;;;;;9.60;5.50;;;;;;;22.58;58.37;93332.03;2068397;69;20140;-74
2021/08/12 07:36:38;;;;;;;7.70;5.43;;;;;;;22.84;58.07;93329.13;2068549;69;20515;-74
2021/08/12 07:39:08;;;;;;;10.00;5.53;;;;;;;23.21;57.14;93330.03;2068481;69;20611;-74
2021/08/12 07:41:34;;;;;;;7.75;5.45;;;;;;;23.31;56.32;93327.41;2068540;69;20214;-74
2021/08/12 07:44:01;;;;;;;12.07;5.35;;;;;;;23.54;56.48;93329.34;2068509;69;20149;-74
2021/08/12 07:46:27;;;;;;;7.15;5.55;;;;;;;23.91;55.35;93327.31;2068486;69;20155;-75
2021/08/12 07:48:53;;;;;;;8.88;5.70;;;;;;;24.13;55.27;93324.16;2068337;69;20144;-76
2021/08/12 07:51:22;;;;;;;8.13;5.60;;;;;;;24.38;55.38;93321.81;2071905;69;20500;-74
2021/08/12 07:53:48;;;;;;;12.18;5.57;;;;;;;24.70;54.90;93331.03;2071775;69;20535;-74
2021/08/12 07:56:14;;;;;;;9.20;5.90;;;;;;;24.90;53.89;93332.81;2071787;69;20167;-74
2021/08/12 07:58:40;;;;;;;8.93;5.72;;;;;;;25.10;51.97;93325.25;2071760;69;20175;-74
2021/08/12 08:01:05;;;;;;;6.88;5.43;;;;;;;25.42;51.78;93327.19;2068356;69;20184;-74
2021/08/12 08:03:31;;;;;;;8.00;5.60;;;;;;;25.51;50.88;93325.88;2071668;69;20144;-74
2021/08/12 08:06:00;;;;;;;7.72;5.63;;;;;;;25.65;50.52;93330.41;2068463;69;20144;-74
2021/08/12 08:08:25;;;;;;;11.27;5.53;;;;;;;26.02;51.41;93314.34;2068310;69;20158;-75
2021/08/12 08:10:51;;;;;;;10.90;5.22;;;;;;;26.26;47.21;93313.94;2071928;69;20600;-75
2021/08/12 08:13:16;;;;;;;5.85;5.18;;;;;;;26.39;45.87;93311.91;2071762;69;20147;-74
2021/08/12 08:15:42;;;;;;;8.35;5.03;;;;;;;26.88;47.67;93306.66;2071784;69;20574;-74
2021/08/12 08:18:08;;;;;;;8.13;5.18;;;;;;;26.74;46.92;93304.38;2071647;69;20262;-75
2021/08/12 08:20:33;;;;;;;5.53;5.03;;;;;;;26.46;44.24;93299.75;2071894;69;20148;-75
2021/08/12 08:23:06;;;;;;;5.47;4.78;;;;;;;27.01;44.07;93291.63;2071750;69;20144;-74
2021/08/12 08:25:32;;;;;;;7.78;4.80;;;;;;;27.56;44.63;93292.06;2071912;69;20144;-75
2021/08/12 08:27:59;;;;;;;7.82;5.40;;;;;;;28.27;40.18;93296.78;2068446;69;20172;-76
2021/08/12 08:30:26;;;;;;;5.55;4.88;;;;;;;27.76;39.90;93287.84;2071753;69;20139;-77
2021/08/12 08:32:52;;;;;;;10.07;5.20;;;;;;;27.83;42.05;93284.28;2068315;69;20146;-75
2021/08/12 08:35:18;;;;;;;5.78;5.10;;;;;;;27.59;43.45;93284.84;2071923;69;20616;-75
2021/08/12 08:37:43;;;;;;;6.05;4.68;;;;;;;28.45;39.46;93278.75;2071815;69;20234;-75
2021/08/12 08:40:10;;;;;;;6.95;4.75;;;;;;;28.53;39.45;93276.63;2071803;69;20160;-75
2021/08/12 08:42:37;;;;;;;5.43;4.82;;;;;;;28.74;40.69;93279.56;2071797;69;20164;-74
2021/08/12 08:45:04;;;;;;;6.43;4.85;;;;;;;28.96;39.81;93288.31;2071771;69;20601;-75
2021/08/12 08:47:31;;;;;;;8.98;4.88;;;;;;;28.97;35.22;93289.78;2071642;69;20516;-75
2021/08/12 08:49:58;;;;;;;5.00;4.50;;;;;;;29.01;37.59;93286.88;2071712;69;20611;-74
2021/08/12 08:52:24;;;;;;;7.25;4.80;;;;;;;29.36;35.53;93276.00;2071679;69;20152;-75
2021/08/12 08:54:50;;;;;;;5.75;4.60;;;;;;;29.58;35.18;93277.44;2071720;69;20142;-79
2021/08/12 08:57:17;;;;;;;8.98;5.25;;;;;;;29.69;37.06;93278.91;2071074;69;20144;-75
2021/08/12 08:59:44;;;;;;;5.35;4.68;;;;;;;29.97;36.62;93278.09;2071337;69;20684;-76
2021/08/12 09:02:11;;;;;;;6.10;4.60;;;;;;;30.03;35.93;93275.16;2071414;69;20148;-78
2021/08/12 09:04:38;;;;;;;5.13;4.38;;;;;;;30.26;34.63;93275.09;2071613;69;20144;-76
2021/08/12 09:07:08;;;;;;;5.85;5.07;;;;;;;30.48;36.06;93269.19;2068216;69;20298;-76
2021/08/12 09:09:37;;;;;;;5.45;4.85;;;;;;;30.37;33.88;93265.59;2071958;69;20500;-75
2021/08/12 09:12:04;;;;;;;6.03;4.80;;;;;;;30.87;36.07;93260.97;2071474;69;20141;-77
2021/08/12 09:14:37;;;;;;;7.20;4.80;;;;;;;31.01;34.03;93265.25;2071726;69;20167;-74
2021/08/12 09:17:19;;;;;;;7.72;4.88;;;;;;;30.81;35.44;93269.75;2071516;69;20642;-75
2021/08/12 09:20:08;;;;;;;11.10;5.50;;;;;;;30.13;35.05;93254.81;2071438;69;20172;-75
2021/08/12 09:22:54;;;;;;;10.40;4.97;;;;;;;31.27;35.53;93258.53;2071630;69;20140;-74
2021/08/12 09:25:34;;;;;;;6.18;4.88;;;;;;;31.31;34.97;93252.69;2071603;69;20136;-74
2021/08/12 09:28:31;;;;;;;6.50;5.10;;;;;;;31.46;33.32;93247.47;2071655;69;20140;-74
2021/08/12 09:33:27;;;;;;;5.07;4.57;;;;;;;30.76;33.07;93244.38;2071430;69;20531;-74
2021/08/12 09:35:54;;;;;;;7.65;4.90;;;;;;;31.32;34.93;93245.41;2071687;69;20168;-75
2021/08/12 09:38:21;;;;;;;7.57;5.38;;;;;;;31.38;35.56;93245.34;2068247;69;20223;-74
2021/08/12 09:40:55;;;;;;;5.72;4.60;;;;;;;32.09;34.48;93249.75;2071599;69;20144;-74
2021/08/12 09:43:22;;;;;;;7.35;4.45;;;;;;;32.64;34.55;93243.25;2071572;69;20151;-74
2021/08/12 09:45:48;;;;;;;6.30;4.43;;;;;;;33.03;33.19;93246.31;2071512;69;20180;-75
2021/08/12 09:48:19;;;;;;;8.63;4.63;;;;;;;33.02;32.10;93236.13;2071447;69;20266;-75
2021/08/12 09:51:06;;;;;;;6.97;4.67;;;;;;;32.43;30.99;93228.22;2071609;69;20155;-75
2021/08/12 09:53:33;;;;;;;9.85;4.90;;;;;;;32.57;32.09;93228.03;2071413;69;20804;-73
2021/08/12 09:56:12;;;;;;;8.35;4.50;;;;;;;33.07;31.45;93231.69;2071575;69;20175;-73
2021/08/12 09:58:39;;;;;;;6.07;4.78;;;;;;;33.99;30.85;93227.19;2071601;69;20506;-73
2021/08/12 10:01:22;;;;;;;6.40;4.60;;;;;;;34.18;31.15;93229.75;2071470;69;20144;-74
2021/08/12 10:03:51;;;;;;;6.10;4.40;;;;;;;34.31;30.38;93219.97;2068108;69;20179;-77
2021/08/12 10:06:27;;;;;;;5.95;4.40;;;;;;;34.30;30.25;93217.81;2071672;69;20156;-74
2021/08/12 10:08:54;;;;;;;5.72;4.13;;;;;;;34.75;29.48;93205.91;2071513;69;20137;-74
2021/08/12 10:11:24;;;;;;;6.28;4.53;;;;;;;34.00;29.23;93210.41;2071513;69;20149;-75
2021/08/12 10:13:54;;;;;;;6.28;4.80;;;;;;;33.80;30.80;93205.66;2071012;69;20179;-75
2021/08/12 10:16:21;;;;;;;5.50;4.70;;;;;;;33.71;31.82;93199.25;2071328;69;20152;-74
2021/08/12 10:18:53;;;;;;;6.03;4.32;;;;;;;34.71;29.68;93190.66;2071448;69;20179;-75
2021/08/12 10:21:19;;;;;;;5.03;4.53;;;;;;;33.88;29.91;93194.53;2071657;69;20155;-74
2021/08/12 10:23:48;;;;;;;4.20;3.80;;;;;;;33.78;28.77;93188.91;2071672;69;20527;-75
2021/08/12 10:26:16;;;;;;;6.20;4.10;;;;;;;35.17;30.06;93182.28;2071538;69;20144;-74
2021/08/12 10:28:43;;;;;;;5.30;3.85;;;;;;;35.90;27.83;93189.19;2071623;69;20214;-75
2021/08/12 10:31:16;;;;;;;7.07;4.22;;;;;;;35.81;27.89;93185.03;2071812;69;20136;-75
2021/08/12 10:33:43;;;;;;;7.20;4.45;;;;;;;35.94;26.60;93185.41;2071920;69;20144;-76
2021/08/12 10:36:09;;;;;;;4.97;4.47;;;;;;;35.57;27.18;93181.28;2072150;69;20175;-76
2021/08/12 10:38:36;;;;;;;5.22;4.00;;;;;;;35.45;27.00;93181.56;2072111;69;20141;-78
2021/08/12 10:41:04;;;;;;;4.53;4.00;;;;;;;37.05;26.02;93180.72;2072011;69;20147;-76
2021/08/12 10:43:30;;;;;;;4.57;3.95;;;;;;;37.01;25.51;93178.63;2072122;69;20148;-76
2021/08/12 10:46:01;;;;;;;9.35;3.80;;;;;;;37.01;25.36;93166.88;2072028;69;20150;-75
2021/08/12 10:48:29;;;;;;;6.47;4.00;;;;;;;36.90;25.79;93172.34;2068638;69;20193;-74
2021/08/12 10:51:10;;;;;;;10.52;3.80;;;;;;;38.22;23.31;93181.13;2072001;69;20140;-76
2021/08/12 10:53:40;;;;;;;7.47;3.30;;;;;;;39.61;23.37;93184.56;2072048;69;20519;-75
2021/08/12 10:56:08;;;;;;;8.02;3.33;;;;;;;39.31;23.06;93180.66;2072044;69;20141;-74
2021/08/12 10:58:35;;;;;;;4.82;3.30;;;;;;;40.16;22.76;93178.56;2071983;69;20132;-77
2021/08/12 11:01:06;;;;;;;6.22;3.35;;;;;;;41.51;21.36;93173.72;2071940;69;20614;-76
2021/08/12 11:03:32;;;;;;;;;;;;;;;41.80;20.31;93164.16;2072103;69;20592;-76
2021/08/12 11:06:02;;;;;;;4.63;3.10;;;;;;;43.97;18.68;93170.03;2068628;69;20142;-76
2021/08/12 11:08:51;;;;;;;5.00;3.15;;;;;;;45.10;18.07;93177.19;2071977;69;20149;-76
2021/08/12 11:11:26;;;;;;;3.78;3.17;;;;;;;47.13;16.35;93173.13;2069368;69;20584;-76
2021/08/12 11:13:54;;;;;;;3.72;2.85;;;;;;;48.60;15.91;93180.75;2072042;69;20568;-75
2021/08/12 11:16:21;;;;;;;4.72;2.55;;;;;;;45.28;17.55;93169.34;2071929;69;20136;-76
2021/08/12 11:18:54;;;;;;;3.80;2.90;;;;;;;46.91;15.80;93172.47;2071805;69;20146;-75
2021/08/12 11:21:32;;;;;;;5.07;2.88;;;;;;;47.19;16.73;93166.72;2071849;69;20662;-75
2021/08/12 11:24:05;;;;;;;4.25;2.97;;;;;;;47.25;17.05;93172.25;2071923;69;20160;-76
2021/08/12 11:26:44;;;;;;;4.53;2.83;;;;;;;50.04;15.72;93175.94;2071892;69;20576;-76
2021/08/12 11:29:22;;;;;;;5.90;2.97;;;;;;;50.32;15.02;93169.84;2071895;69;20144;-77
2021/08/12 11:31:47;;;;;;;6.72;2.63;;;;;;;49.07;13.38;93162.09;2071883;69;20132;-76
2021/08/12 11:34:21;;;;;;;3.55;2.40;;;;;;;52.02;12.98;93156.28;2071778;69;20147;-76
2021/08/12 11:37:07;;;;;;;5.05;2.38;;;;;;;52.77;11.48;93163.50;2071917;69;20152;-76